createdAt,value
2022-08-23T00:02:23.017Z,3.40
2022-08-23T00:05:08.423Z,3.60
2022-08-23T00:07:43.194Z,4.00
2022-08-23T00:10:13.764Z,4.20
2022-08-23T00:12:42.546Z,3.90
2022-08-23T00:15:11.288Z,3.60
2022-08-23T00:17:39.009Z,3.90
2022-08-23T00:20:07.630Z,4.00
2022-08-23T00:22:34.392Z,4.00
2022-08-23T00:25:01.181Z,3.60
2022-08-23T00:27:28.304Z,4.20
2022-08-23T00:29:57.014Z,3.30
2022-08-23T00:32:34.218Z,3.50
2022-08-23T00:35:02.372Z,3.00
2022-08-23T00:37:31.834Z,3.40
2022-08-23T00:39:59.742Z,3.70
2022-08-23T00:43:00.450Z,3.50
2022-08-23T00:45:56.584Z,3.40
2022-08-23T00:48:23.761Z,3.70
2022-08-23T00:51:01.766Z,4.10
2022-08-23T00:53:32.220Z,3.20
2022-08-23T00:56:03.060Z,3.90
2022-08-23T00:58:30.370Z,3.30
2022-08-23T01:01:00.461Z,4.40
2022-08-23T01:03:30.301Z,4.10
2022-08-23T01:06:26.883Z,4.60
2022-08-23T01:08:59.250Z,4.50
2022-08-23T01:11:34.816Z,4.50
2022-08-23T01:14:15.592Z,4.80
2022-08-23T01:17:07.816Z,3.90
2022-08-23T01:19:41.297Z,4.50
2022-08-23T01:22:11.667Z,4.10
2022-08-23T01:25:06.156Z,3.70
2022-08-23T01:27:27.481Z,3.10
2022-08-23T01:29:54.186Z,3.70
2022-08-23T01:32:21.631Z,4.10
2022-08-23T01:34:52.062Z,4.50
2022-08-23T01:37:21.240Z,4.20
2022-08-23T01:39:49.125Z,4.40
2022-08-23T01:42:15.840Z,3.40
2022-08-23T01:44:42.780Z,3.70
2022-08-23T01:47:10.804Z,3.20
2022-08-23T01:49:37.520Z,4.00
2022-08-23T01:52:04.118Z,3.10
2022-08-23T01:54:30.893Z,3.40
2022-08-23T01:56:58.403Z,3.70
2022-08-23T01:59:25.988Z,3.70
2022-08-23T02:01:53.916Z,5.30
2022-08-23T02:04:22.020Z,4.30
2022-08-23T02:06:48.954Z,3.20
2022-08-23T02:09:19.741Z,4.90
2022-08-23T02:11:47.597Z,4.50
2022-08-23T02:14:19.100Z,3.80
2022-08-23T02:17:04.236Z,5.00
2022-08-23T02:19:37.279Z,3.90
2022-08-23T02:22:07.018Z,5.10
2022-08-23T02:24:34.332Z,3.50
2022-08-23T02:27:04.284Z,4.10
2022-08-23T02:29:34.777Z,4.70
2022-08-23T02:32:06.140Z,4.50
2022-08-23T02:34:32.978Z,3.80
2022-08-23T02:37:00.223Z,3.50
2022-08-23T02:39:27.488Z,3.60
2022-08-23T02:41:54.253Z,3.80
2022-08-23T02:44:21.923Z,3.30
2022-08-23T02:46:48.729Z,3.70
2022-08-23T02:49:16.640Z,5.20
2022-08-23T02:51:44.360Z,4.40
2022-08-23T02:54:11.549Z,4.00
2022-08-23T02:56:38.695Z,3.80
2022-08-23T02:59:06.268Z,5.30
2022-08-23T03:01:38.562Z,5.40
2022-08-23T03:04:20.611Z,4.80
2022-08-23T03:06:47.696Z,5.10
2022-08-23T03:09:14.811Z,3.90
2022-08-23T03:11:47.118Z,5.20
2022-08-23T03:16:41.607Z,4.70
2022-08-23T03:19:08.914Z,4.30
2022-08-23T03:21:35.704Z,4.90
2022-08-23T03:24:06.845Z,4.80
2022-08-23T03:26:37.107Z,4.50
2022-08-23T03:29:04.079Z,4.80
2022-08-23T03:31:34.363Z,4.50
2022-08-23T03:34:08.474Z,3.70
2022-08-23T03:36:35.227Z,3.70
2022-08-23T03:39:02.616Z,4.40
2022-08-23T03:41:29.351Z,4.30
2022-08-23T03:43:56.177Z,5.00
2022-08-23T03:46:23.373Z,3.40
2022-08-23T03:48:57.417Z,4.80
2022-08-23T03:51:25.761Z,3.90
2022-08-23T03:53:53.674Z,4.00
2022-08-23T03:56:33.657Z,4.20
2022-08-23T03:59:05.050Z,3.90
2022-08-23T04:01:32.096Z,3.70
2022-08-23T04:04:01.601Z,5.00
2022-08-23T04:06:32.488Z,3.40
2022-08-23T04:08:59.496Z,4.10
2022-08-23T04:11:27.190Z,5.20
2022-08-23T04:14:00.130Z,4.60
2022-08-23T04:16:28.411Z,4.50
2022-08-23T04:18:56.234Z,4.90
2022-08-23T04:21:24.093Z,4.30
2022-08-23T04:23:52.237Z,4.10
2022-08-23T04:26:19.323Z,4.80
2022-08-23T04:28:47.341Z,3.50
2022-08-23T04:31:15.513Z,3.70
2022-08-23T04:33:43.277Z,3.90
2022-08-23T04:36:11.583Z,5.00
2022-08-23T04:38:38.431Z,5.10
2022-08-23T04:41:24.655Z,3.70
2022-08-23T04:43:52.229Z,4.30
2022-08-23T04:46:19.017Z,4.30
2022-08-23T04:48:47.477Z,5.30
2022-08-23T04:51:15.848Z,4.40
2022-08-23T04:53:43.114Z,8.10
2022-08-23T04:56:33.304Z,6.90
2022-08-23T04:59:00.373Z,5.10
2022-08-23T05:01:27.341Z,4.20
2022-08-23T05:03:54.762Z,5.10
2022-08-23T05:06:24.472Z,3.60
2022-08-23T05:08:51.284Z,4.40
2022-08-23T05:11:18.600Z,4.50
2022-08-23T05:13:45.826Z,3.80
2022-08-23T05:16:13.554Z,4.30
2022-08-23T05:18:46.499Z,4.00
2022-08-23T05:21:19.017Z,5.20
2022-08-23T05:23:50.997Z,4.80
2022-08-23T05:26:21.911Z,4.20
2022-08-23T05:28:49.798Z,4.20
2022-08-23T05:31:25.012Z,3.90
2022-08-23T05:33:58.516Z,4.10
2022-08-23T05:36:31.361Z,4.40
2022-08-23T05:38:58.207Z,4.70
2022-08-23T05:41:33.363Z,7.40
2022-08-23T05:44:07.538Z,7.70
2022-08-23T05:46:36.921Z,7.00
2022-08-23T05:49:36.818Z,5.70
2022-08-23T05:52:09.121Z,5.30
2022-08-23T05:54:37.495Z,4.00
2022-08-23T05:57:17.588Z,4.10
2022-08-23T05:59:44.533Z,4.60
2022-08-23T06:02:11.128Z,3.50
2022-08-23T06:04:39.246Z,3.70
2022-08-23T06:07:16.067Z,3.50
2022-08-23T06:09:46.430Z,3.60
2022-08-23T06:12:13.309Z,3.90
2022-08-23T06:14:40.445Z,3.70
2022-08-23T06:17:07.288Z,3.10
2022-08-23T06:19:34.666Z,4.00
2022-08-23T06:22:22.921Z,3.10
2022-08-23T06:24:50.181Z,3.50
2022-08-23T06:27:17.073Z,3.20
2022-08-23T06:29:45.200Z,3.60
2022-08-23T06:32:30.746Z,3.90
2022-08-23T06:35:37.848Z,3.60
2022-08-23T06:38:07.770Z,4.60
2022-08-23T06:40:59.784Z,2.80
2022-08-23T06:43:27.162Z,3.20
2022-08-23T06:46:23.441Z,3.30
2022-08-23T06:48:52.670Z,3.50
2022-08-23T06:51:43.084Z,3.30
2022-08-23T06:54:28.626Z,2.90
2022-08-23T06:56:56.578Z,3.00
2022-08-23T06:59:32.791Z,3.50
2022-08-23T07:02:14.867Z,3.70
2022-08-23T07:04:57.780Z,3.20
2022-08-23T07:07:41.350Z,3.70
2022-08-23T07:10:13.270Z,3.80
2022-08-23T07:12:41.818Z,3.50
2022-08-23T07:15:12.123Z,3.40
2022-08-23T07:17:41.008Z,4.10
2022-08-23T07:20:07.941Z,3.10
2022-08-23T07:22:36.576Z,3.60
2022-08-23T07:25:04.361Z,4.00
2022-08-23T07:27:31.952Z,3.70
2022-08-23T07:30:03.560Z,4.40
2022-08-23T07:32:30.858Z,3.60
2022-08-23T07:35:00.500Z,3.90
2022-08-23T07:37:30.375Z,4.50
2022-08-23T07:39:58.761Z,3.50
2022-08-23T07:42:26.045Z,3.30
2022-08-23T07:44:56.208Z,3.40
2022-08-23T07:47:27.973Z,3.30
2022-08-23T07:49:56.114Z,3.10
2022-08-23T07:52:23.580Z,3.70
2022-08-23T07:54:50.664Z,3.50
2022-08-23T07:57:40.287Z,3.50
2022-08-23T08:00:26.581Z,3.80
2022-08-23T08:03:01.740Z,3.30
2022-08-23T08:05:37.225Z,4.10
2022-08-23T08:08:04.296Z,3.50
2022-08-23T08:10:31.731Z,3.40
2022-08-23T08:12:58.504Z,3.30
2022-08-23T08:15:25.151Z,3.50
2022-08-23T08:20:44.071Z,4.80
2022-08-23T08:23:29.706Z,4.30
2022-08-23T08:26:30.247Z,4.40
2022-08-23T08:28:57.329Z,4.00
2022-08-23T08:31:26.084Z,4.30
2022-08-23T08:33:54.631Z,4.10
2022-08-23T08:36:40.647Z,3.00
2022-08-23T08:39:14.592Z,3.00
2022-08-23T08:41:42.526Z,3.50
2022-08-23T08:44:23.574Z,9.70
2022-08-23T08:46:53.929Z,3.80
2022-08-23T08:49:49.596Z,6.90
2022-08-23T08:52:29.742Z,10.00
2022-08-23T08:55:08.528Z,4.80
2022-08-23T08:57:42.865Z,10.40
2022-08-23T09:00:26.360Z,3.20
2022-08-23T09:02:55.044Z,2.70
2022-08-23T09:05:31.104Z,3.30
2022-08-23T09:08:10.378Z,3.30
2022-08-23T09:11:12.414Z,3.40
2022-08-23T09:14:05.568Z,3.90
2022-08-23T09:16:54.351Z,2.60
2022-08-23T09:19:25.126Z,4.10
2022-08-23T09:22:02.662Z,4.10
2022-08-23T09:24:33.019Z,4.30
2022-08-23T09:27:14.920Z,2.10
2022-08-23T09:29:52.428Z,3.00
2022-08-23T09:32:35.665Z,3.90
2022-08-23T09:35:21.002Z,3.10
2022-08-23T09:38:04.226Z,2.70
2022-08-23T09:40:44.953Z,2.70
2022-08-23T09:43:19.464Z,3.00
2022-08-23T09:45:49.080Z,3.00
2022-08-23T09:48:42.649Z,2.60
2022-08-23T09:51:37.689Z,2.60
2022-08-23T09:54:46.919Z,2.70
2022-08-23T09:57:24.648Z,2.50
2022-08-23T09:59:51.408Z,2.70
2022-08-23T10:02:26.043Z,2.90
2022-08-23T10:04:56.180Z,2.50
2022-08-23T10:07:28.108Z,3.00
2022-08-23T10:10:31.794Z,2.80
2022-08-23T10:13:03.087Z,2.90
2022-08-23T10:16:00.205Z,2.80
2022-08-23T10:18:50.576Z,2.30
2022-08-23T10:21:46.950Z,3.10
2022-08-23T10:24:38.014Z,2.80
2022-08-23T10:27:41.556Z,4.20
2022-08-23T10:30:13.265Z,3.90
2022-08-23T10:33:14.340Z,3.30
2022-08-23T10:36:10.338Z,3.00
2022-08-23T10:38:43.421Z,3.40
2022-08-23T10:41:22.639Z,3.00
2022-08-23T10:44:12.397Z,2.90
2022-08-23T10:47:06.670Z,2.70
2022-08-23T10:49:37.290Z,3.00
2022-08-23T10:52:09.072Z,3.00
2022-08-23T10:54:59.795Z,3.00
2022-08-23T10:57:39.565Z,3.10
2022-08-23T11:00:23.664Z,3.40
2022-08-23T11:03:29.223Z,2.90
2022-08-23T11:06:27.792Z,2.60
2022-08-23T11:09:00.225Z,2.90
2022-08-23T11:12:02.434Z,3.20
2022-08-23T11:14:40.326Z,3.20
2022-08-23T11:17:12.395Z,2.90
2022-08-23T11:22:21.322Z,2.90
2022-08-23T11:24:59.347Z,2.60
2022-08-23T11:27:39.998Z,2.30
2022-08-23T11:30:33.723Z,3.00
2022-08-23T11:33:31.495Z,3.10
2022-08-23T11:36:22.696Z,3.00
2022-08-23T11:38:49.545Z,3.00
2022-08-23T11:41:19.567Z,2.80
2022-08-23T11:44:16.813Z,2.50
2022-08-23T11:46:57.722Z,3.50
2022-08-23T11:49:30.136Z,2.90
2022-08-23T11:52:11.346Z,2.60
2022-08-23T11:55:11.563Z,2.80
2022-08-23T11:57:51.186Z,2.70
2022-08-23T12:00:29.002Z,3.00
2022-08-23T12:03:33.305Z,3.40
2022-08-23T12:06:09.820Z,2.50
2022-08-23T12:09:01.752Z,3.30
2022-08-23T12:12:23.969Z,3.00
2022-08-23T12:14:55.620Z,8.50
2022-08-23T12:17:25.674Z,5.40
2022-08-23T12:20:05.583Z,5.40
2022-08-23T12:23:12.631Z,3.10
2022-08-23T12:25:39.720Z,4.30
2022-08-23T12:28:07.239Z,5.10
2022-08-23T12:30:46.313Z,4.00
2022-08-23T12:33:31.743Z,2.90
2022-08-23T12:36:36.772Z,3.00
2022-08-23T12:39:08.847Z,2.90
2022-08-23T12:41:53.473Z,2.60
2022-08-23T12:44:23.026Z,3.20
2022-08-23T12:46:51.005Z,3.40
2022-08-23T12:49:23.673Z,3.10
2022-08-23T12:51:54.244Z,2.70
2022-08-23T12:54:23.981Z,3.00
2022-08-23T12:56:54.129Z,4.40
2022-08-23T12:59:38.338Z,3.60
2022-08-23T13:02:11.115Z,3.40
2022-08-23T13:04:40.205Z,3.50
2022-08-23T13:07:12.038Z,3.70
2022-08-23T13:09:41.821Z,3.80
2022-08-23T13:12:10.795Z,3.90
2022-08-23T13:14:40.884Z,4.00
2022-08-23T13:17:25.770Z,6.90
2022-08-23T13:20:10.121Z,4.00
2022-08-23T13:22:39.129Z,3.80
2022-08-23T13:25:29.250Z,3.60
2022-08-23T13:28:04.530Z,4.80
2022-08-23T13:30:36.943Z,3.50
2022-08-23T13:33:03.703Z,2.70
2022-08-23T13:35:35.999Z,3.50
2022-08-23T13:38:21.219Z,4.30
2022-08-23T13:41:01.044Z,3.50
2022-08-23T13:43:39.347Z,3.00
2022-08-23T13:46:19.351Z,2.80
2022-08-23T13:49:17.717Z,3.60
2022-08-23T13:52:12.030Z,3.20
2022-08-23T13:54:46.331Z,4.10
2022-08-23T13:57:21.028Z,3.20
2022-08-23T13:59:53.578Z,3.50
2022-08-23T14:02:22.375Z,3.00
2022-08-23T14:04:49.381Z,3.20
2022-08-23T14:07:16.163Z,3.60
2022-08-23T14:09:44.136Z,3.20
2022-08-23T14:12:18.239Z,3.20
2022-08-23T14:14:46.090Z,3.20
2022-08-23T14:17:16.572Z,3.00
2022-08-23T14:22:34.145Z,3.20
2022-08-23T14:25:01.166Z,3.60
2022-08-23T14:27:28.296Z,3.40
2022-08-23T14:29:54.910Z,3.40
2022-08-23T14:32:21.666Z,3.20
2022-08-23T14:34:48.300Z,4.40
2022-08-23T14:40:02.598Z,3.30
2022-08-23T14:42:29.570Z,3.30
2022-08-23T14:44:56.214Z,3.10
2022-08-23T14:47:23.003Z,3.00
2022-08-23T14:49:53.329Z,3.30
2022-08-23T14:52:21.989Z,3.60
2022-08-23T14:54:49.564Z,3.40
2022-08-23T14:57:19.338Z,3.80
2022-08-23T14:59:45.999Z,3.40
2022-08-23T15:02:18.783Z,3.80
2022-08-23T15:04:45.698Z,3.30
2022-08-23T15:07:19.922Z,3.20
2022-08-23T15:09:53.982Z,4.10
2022-08-23T15:15:15.561Z,4.20
2022-08-23T15:18:08.822Z,4.30
2022-08-23T15:20:37.759Z,3.40
2022-08-23T15:23:07.612Z,3.10
2022-08-23T15:25:37.024Z,3.00
2022-08-23T15:28:13.291Z,2.90
2022-08-23T15:30:42.041Z,2.20
2022-08-23T15:33:10.707Z,2.60
2022-08-23T15:35:45.716Z,2.10
2022-08-23T15:38:15.276Z,2.00
2022-08-23T15:40:42.655Z,2.20
2022-08-23T15:43:09.433Z,1.70
2022-08-23T15:45:36.528Z,1.90
2022-08-23T15:48:12.055Z,2.40
2022-08-23T15:50:43.843Z,2.30
2022-08-23T15:53:11.150Z,2.70
2022-08-23T15:55:40.422Z,2.10
2022-08-23T15:58:12.893Z,1.80
2022-08-23T16:03:19.252Z,2.50
2022-08-23T16:05:51.409Z,2.70
2022-08-23T16:08:24.440Z,2.50
2022-08-23T16:10:52.535Z,3.00
2022-08-23T16:13:20.181Z,2.90
2022-08-23T16:15:48.203Z,3.10
2022-08-23T16:18:15.333Z,2.80
2022-08-23T16:20:43.065Z,2.50
2022-08-23T16:23:10.386Z,2.60
2022-08-23T16:25:37.642Z,3.60
2022-08-23T16:28:05.173Z,3.30
2022-08-23T16:30:31.820Z,4.80
2022-08-23T16:32:58.939Z,3.70
2022-08-23T16:35:25.753Z,2.60
2022-08-23T16:37:54.007Z,3.60
2022-08-23T16:40:22.086Z,3.70
2022-08-23T16:42:49.014Z,3.60
2022-08-23T16:45:15.878Z,3.90
2022-08-23T16:47:44.845Z,3.20
2022-08-23T16:50:13.249Z,3.90
2022-08-23T16:52:40.500Z,3.20
2022-08-23T16:55:09.855Z,4.30
2022-08-23T16:57:36.905Z,3.70
2022-08-23T17:00:07.378Z,3.70
2022-08-23T17:02:36.232Z,4.20
2022-08-23T17:05:08.669Z,3.40
2022-08-23T17:10:03.073Z,3.20
2022-08-23T17:12:31.020Z,3.40
2022-08-23T17:14:58.639Z,5.30
2022-08-23T17:17:25.475Z,3.60
2022-08-23T17:19:52.290Z,3.20
2022-08-23T17:22:19.352Z,4.00
2022-08-23T17:24:45.935Z,4.30
2022-08-23T17:27:19.165Z,4.30
2022-08-23T17:29:46.556Z,4.00
2022-08-23T17:32:13.554Z,3.30
2022-08-23T17:34:40.442Z,3.70
2022-08-23T17:37:19.920Z,4.40
2022-08-23T17:39:49.051Z,4.00
2022-08-23T17:42:17.018Z,3.60
2022-08-23T17:44:44.673Z,3.80
2022-08-23T17:47:15.808Z,3.00
2022-08-23T17:49:44.816Z,3.40
2022-08-23T17:52:12.339Z,4.40
2022-08-23T17:54:40.358Z,4.00
2022-08-23T17:57:09.434Z,3.30
2022-08-23T17:59:37.469Z,3.40
2022-08-23T18:02:05.258Z,3.00
2022-08-23T18:04:32.223Z,3.30
2022-08-23T18:06:59.223Z,3.40
2022-08-23T18:09:26.169Z,2.70
2022-08-23T18:11:53.960Z,3.20
2022-08-23T18:14:22.797Z,3.10
2022-08-23T18:16:50.973Z,2.60
2022-08-23T18:19:18.015Z,2.80
2022-08-23T18:21:46.236Z,3.10
2022-08-23T18:24:13.576Z,2.80
2022-08-23T18:26:59.108Z,2.90
2022-08-23T18:29:28.394Z,3.30
2022-08-23T18:31:55.498Z,3.00
2022-08-23T18:34:23.409Z,3.00
2022-08-23T18:36:50.733Z,2.80
2022-08-23T18:39:18.011Z,4.10
2022-08-23T18:42:03.456Z,3.30
2022-08-23T18:44:31.000Z,2.80
2022-08-23T18:46:58.259Z,3.10
2022-08-23T18:49:25.135Z,2.80
2022-08-23T18:51:52.100Z,2.70
2022-08-23T18:54:19.754Z,2.80
2022-08-23T18:56:49.100Z,2.70
2022-08-23T18:59:16.185Z,3.60
2022-08-23T19:01:46.275Z,3.50
2022-08-23T19:04:13.500Z,3.40
2022-08-23T19:06:40.721Z,4.30
2022-08-23T19:09:12.832Z,4.70
2022-08-23T19:11:41.578Z,4.60
2022-08-23T19:14:10.236Z,3.90
2022-08-23T19:16:38.729Z,2.70
2022-08-23T19:19:09.424Z,2.70
2022-08-23T19:21:38.737Z,4.00
2022-08-23T19:24:05.937Z,3.40
2022-08-23T19:26:35.714Z,3.90
2022-08-23T19:29:07.264Z,4.10
2022-08-23T19:31:41.050Z,4.40
2022-08-23T19:34:09.955Z,3.80
2022-08-23T19:36:46.324Z,3.60
2022-08-23T19:39:15.928Z,4.20
2022-08-23T19:41:44.016Z,3.70
2022-08-23T19:44:11.335Z,3.20
2022-08-23T19:46:40.896Z,3.10
2022-08-23T19:49:11.207Z,3.40
2022-08-23T19:51:39.169Z,4.80
2022-08-23T19:54:11.049Z,3.50
2022-08-23T19:56:57.063Z,3.80
2022-08-23T19:59:29.850Z,3.50
2022-08-23T20:01:58.821Z,3.80
2022-08-23T20:04:28.524Z,4.20
2022-08-23T20:06:57.375Z,4.10
2022-08-23T20:09:28.186Z,4.60
2022-08-23T20:11:56.516Z,3.80
2022-08-23T20:14:25.755Z,3.60
2022-08-23T20:16:54.417Z,4.70
2022-08-23T20:19:21.486Z,7.00
2022-08-23T20:21:48.504Z,3.90
2022-08-23T20:24:17.201Z,4.00
2022-08-23T20:26:46.957Z,4.30
2022-08-23T20:29:17.456Z,5.20
2022-08-23T20:31:57.008Z,3.80
2022-08-23T20:34:26.524Z,3.90
2022-08-23T20:36:55.513Z,4.50
2022-08-23T20:39:52.346Z,4.70
2022-08-23T20:42:19.469Z,5.10
2022-08-23T20:44:46.798Z,4.30
2022-08-23T20:47:16.172Z,4.30
2022-08-23T20:49:43.519Z,5.40
2022-08-23T20:52:13.082Z,5.50
2022-08-23T20:54:45.599Z,4.40
2022-08-23T20:57:12.767Z,4.90
2022-08-23T20:59:44.213Z,4.50
2022-08-23T21:02:12.770Z,5.00
2022-08-23T21:04:40.222Z,4.80
2022-08-23T21:07:07.814Z,6.10
2022-08-23T21:09:35.292Z,7.60
2022-08-23T21:12:02.115Z,6.30
2022-08-23T21:14:28.843Z,6.60
2022-08-23T21:16:55.871Z,6.00
2022-08-23T21:19:23.151Z,5.20
2022-08-23T21:21:50.058Z,5.40
2022-08-23T21:24:16.951Z,5.20
2022-08-23T21:26:43.661Z,6.10
2022-08-23T21:29:10.632Z,5.90
2022-08-23T21:31:38.363Z,4.80
2022-08-23T21:34:07.827Z,6.10
2022-08-23T21:36:35.483Z,5.10
2022-08-23T21:39:03.326Z,6.30
2022-08-23T21:41:29.940Z,5.20
2022-08-23T21:43:56.669Z,5.50
2022-08-23T21:46:23.520Z,7.20
2022-08-23T21:48:50.274Z,6.50
2022-08-23T21:51:16.971Z,6.60
2022-08-23T21:53:43.557Z,5.90
2022-08-23T21:56:10.214Z,6.00
2022-08-23T21:58:36.946Z,5.20
2022-08-23T22:01:03.998Z,5.50
2022-08-23T22:03:30.783Z,5.60
2022-08-23T22:05:57.656Z,6.40
2022-08-23T22:08:24.364Z,7.50
2022-08-23T22:10:57.512Z,6.50
2022-08-23T22:13:27.989Z,6.50
2022-08-23T22:15:54.897Z,6.30
2022-08-23T22:18:21.946Z,6.80
2022-08-23T22:20:48.810Z,7.10
2022-08-23T22:23:15.873Z,6.60
2022-08-23T22:25:42.796Z,7.20
2022-08-23T22:28:09.539Z,6.70
2022-08-23T22:30:36.260Z,6.30
2022-08-23T22:33:03.372Z,8.90
2022-08-23T22:35:34.237Z,7.30
2022-08-23T22:38:13.831Z,6.40
2022-08-23T22:40:52.434Z,7.20
2022-08-23T22:43:19.947Z,8.40
2022-08-23T22:45:55.052Z,9.00
2022-08-23T22:48:22.590Z,7.10
2022-08-23T22:50:50.645Z,6.80
2022-08-23T22:53:19.268Z,7.10
2022-08-23T22:55:50.699Z,6.80
2022-08-23T22:58:18.126Z,6.80
2022-08-23T23:00:44.803Z,7.00
2022-08-23T23:03:11.460Z,7.30
2022-08-23T23:05:38.171Z,7.50
2022-08-23T23:08:23.366Z,8.70
2022-08-23T23:10:50.336Z,6.10
2022-08-23T23:13:17.197Z,11.40
2022-08-23T23:15:44.015Z,9.40
2022-08-23T23:18:10.834Z,8.20
2022-08-23T23:20:38.690Z,7.60
2022-08-23T23:23:07.040Z,7.90
2022-08-23T23:25:35.708Z,10.70
2022-08-23T23:28:04.119Z,9.50
2022-08-23T23:30:33.069Z,7.30
2022-08-23T23:33:00.165Z,8.10
2022-08-23T23:35:30.158Z,11.90
2022-08-23T23:37:57.788Z,6.90
2022-08-23T23:40:25.932Z,7.20
2022-08-23T23:42:53.772Z,11.30
2022-08-23T23:45:20.776Z,7.90
2022-08-23T23:47:47.979Z,7.60
2022-08-23T23:50:15.621Z,7.70
2022-08-23T23:52:42.856Z,8.60
2022-08-23T23:55:12.762Z,7.30
2022-08-23T23:57:39.760Z,8.90
